Villa Pampanos, Puerto Rico
Current Conditions -  °F | °C
As of 10:50 AM on Saturday 25 Oct 2014 (Local Time) from TJBQ Reporting Station
Scattered Clouds Scattered Clouds  
Wind Chill: 30°   Ceiling: Unl
Heat Index: 34°   Visibility: 10mi
Dew Point: 23°   Wind: 3mph
Humidity: 66%   Direction: 360°N
Pressure: 29.95"   Gusts: NA
Location:  18.0093°N, 66.6209°W
Report Text: TJBQ 251450Z 36003KT 10SM SCT030 30/23 A2995 RMK RWY08 - ATIS S
Loading
Personal Weather Stations






























Interactive Weather Map
Tropical Storm Tracking
New forecast layout! Learn more

10-Day Weather Forecast

Advertisements
Track Severe Weather on mobile